createdAt,value
2023-02-26T00:03:54.293Z,94.73
2023-02-26T00:07:41.980Z,94.58
2023-02-26T00:11:29.852Z,94.56
2023-02-26T00:15:15.055Z,94.65
2023-02-26T00:18:52.848Z,94.47
2023-02-26T00:22:41.568Z,94.15
2023-02-26T00:26:31.006Z,94.15
2023-02-26T00:30:21.071Z,94.53
2023-02-26T00:33:54.533Z,94.39
2023-02-26T00:37:56.202Z,94.70
2023-02-26T00:41:44.780Z,94.18
2023-02-26T00:45:35.710Z,94.35
2023-02-26T00:49:15.902Z,94.43
2023-02-26T00:53:02.538Z,94.55
2023-02-26T00:56:51.148Z,94.79
2023-02-26T01:00:38.637Z,94.64
2023-02-26T01:04:10.582Z,94.94
2023-02-26T01:07:49.005Z,94.74
2023-02-26T01:11:17.471Z,94.66
2023-02-26T01:14:47.333Z,94.59
2023-02-26T01:18:20.657Z,94.32
2023-02-26T01:22:14.511Z,93.88
2023-02-26T01:25:49.350Z,93.55
2023-02-26T01:29:37.186Z,93.47
2023-02-26T01:33:30.198Z,93.39
2023-02-26T01:37:28.482Z,93.38
2023-02-26T01:41:30.255Z,93.46
2023-02-26T01:45:22.664Z,93.60
2023-02-26T01:49:16.341Z,93.73
2023-02-26T01:53:24.487Z,93.92
2023-02-26T01:57:16.129Z,93.81
2023-02-26T02:00:53.211Z,94.13
2023-02-26T02:04:42.222Z,94.29
2023-02-26T02:08:23.583Z,94.10
2023-02-26T02:12:25.539Z,94.09
2023-02-26T02:16:39.172Z,94.17
2023-02-26T02:21:08.344Z,94.18
2023-02-26T02:24:54.213Z,94.22
2023-02-26T02:28:55.616Z,94.33
2023-02-26T02:32:49.745Z,94.34
2023-02-26T02:36:35.653Z,94.34
2023-02-26T02:40:26.964Z,94.32
2023-02-26T02:44:19.373Z,94.29
2023-02-26T02:48:13.446Z,94.21
2023-02-26T02:52:07.761Z,93.84
2023-02-26T02:55:39.635Z,94.07
2023-02-26T02:59:17.673Z,94.62
2023-02-26T03:03:14.968Z,94.46
2023-02-26T03:06:52.178Z,95.20
2023-02-26T03:10:39.999Z,95.21
2023-02-26T03:14:27.854Z,95.68
2023-02-26T03:18:34.844Z,95.46
2023-02-26T03:22:18.751Z,95.48
2023-02-26T03:26:13.192Z,95.56
2023-02-26T03:30:06.590Z,95.74
2023-02-26T03:33:45.247Z,95.36
2023-02-26T03:37:37.488Z,95.45
2023-02-26T03:41:23.344Z,95.71
2023-02-26T03:45:03.549Z,95.61
2023-02-26T03:48:49.439Z,95.55
2023-02-26T03:52:40.518Z,95.61
2023-02-26T03:56:38.827Z,96.20
2023-02-26T04:00:27.829Z,96.10
2023-02-26T04:04:20.598Z,95.76
2023-02-26T04:08:08.136Z,96.05
2023-02-26T04:11:58.295Z,96.00
2023-02-26T04:15:46.007Z,96.12
2023-02-26T04:19:33.910Z,95.89
2023-02-26T04:23:11.144Z,95.85
2023-02-26T04:26:58.542Z,95.81
2023-02-26T04:30:46.113Z,95.73
2023-02-26T04:34:24.398Z,95.75
2023-02-26T04:38:11.875Z,95.91
2023-02-26T04:41:47.925Z,96.02
2023-02-26T04:45:35.416Z,95.82
2023-02-26T04:49:23.025Z,95.70
2023-02-26T04:53:10.718Z,95.77
2023-02-26T04:56:58.159Z,96.30
2023-02-26T05:00:48.936Z,96.18
2023-02-26T05:04:38.658Z,96.50
2023-02-26T05:08:26.454Z,96.34
2023-02-26T05:12:14.055Z,96.34
2023-02-26T05:16:01.580Z,96.14
2023-02-26T05:19:49.343Z,95.89
2023-02-26T05:23:37.472Z,95.86
2023-02-26T05:27:25.266Z,95.69
2023-02-26T05:31:01.643Z,95.58
2023-02-26T05:34:41.772Z,95.48
2023-02-26T05:38:18.017Z,95.61
2023-02-26T05:41:58.784Z,95.43
2023-02-26T05:45:31.489Z,95.57
2023-02-26T05:49:10.581Z,95.48
2023-02-26T05:52:49.516Z,95.40
2023-02-26T05:56:36.160Z,95.61
2023-02-26T06:00:11.840Z,95.84
2023-02-26T06:03:46.906Z,95.60
2023-02-26T06:07:24.708Z,95.80
2023-02-26T06:11:06.027Z,95.90
2023-02-26T06:14:53.406Z,95.97
2023-02-26T06:18:35.268Z,95.89
2023-02-26T06:22:22.952Z,96.03
2023-02-26T06:26:10.541Z,96.09
2023-02-26T06:29:50.483Z,96.04
2023-02-26T06:33:21.076Z,95.88
2023-02-26T06:36:59.557Z,95.71
2023-02-26T06:40:37.575Z,95.52
2023-02-26T06:44:25.167Z,95.30
2023-02-26T06:48:06.719Z,95.09
2023-02-26T06:51:54.615Z,94.89
2023-02-26T06:55:31.179Z,94.75
2023-02-26T06:59:09.381Z,94.60
2023-02-26T07:02:53.587Z,94.54
2023-02-26T07:06:27.428Z,94.35
2023-02-26T07:10:10.061Z,93.96
2023-02-26T07:13:57.925Z,93.93
2023-02-26T07:17:44.283Z,94.06
2023-02-26T07:21:17.151Z,94.07
2023-02-26T07:25:04.915Z,94.26
2023-02-26T07:28:41.059Z,94.55
2023-02-26T07:32:18.210Z,94.61
2023-02-26T07:36:06.523Z,94.82
2023-02-26T07:39:54.705Z,94.96
2023-02-26T07:43:37.070Z,94.90
2023-02-26T07:47:24.582Z,94.56
2023-02-26T07:51:12.294Z,94.39
2023-02-26T07:54:49.051Z,94.25
2023-02-26T07:58:36.635Z,93.68
2023-02-26T08:02:24.767Z,92.40
2023-02-26T08:06:05.026Z,90.85
2023-02-26T08:09:45.625Z,89.33
2023-02-26T08:13:20.801Z,88.15
2023-02-26T08:17:07.104Z,87.19
2023-02-26T08:20:41.548Z,86.70
2023-02-26T08:24:16.377Z,87.06
2023-02-26T08:27:57.927Z,87.28
2023-02-26T08:31:45.788Z,87.44
2023-02-26T08:35:33.263Z,86.66
2023-02-26T08:39:21.049Z,85.81
2023-02-26T08:43:01.480Z,86.70
2023-02-26T08:46:49.369Z,86.18
2023-02-26T08:50:35.585Z,85.51
2023-02-26T08:54:23.508Z,85.16
2023-02-26T08:57:59.523Z,85.69
2023-02-26T09:01:35.973Z,84.63
2023-02-26T09:05:23.033Z,84.63
2023-02-26T09:08:53.685Z,84.66
2023-02-26T09:12:30.227Z,84.22
2023-02-26T09:16:00.925Z,83.82
2023-02-26T09:19:34.364Z,83.83
2023-02-26T09:23:22.284Z,84.34
2023-02-26T09:27:01.282Z,82.99
2023-02-26T09:30:42.545Z,83.36
2023-02-26T09:34:30.089Z,82.91
2023-02-26T09:38:04.063Z,80.95
2023-02-26T09:41:58.663Z,79.81
2023-02-26T09:45:49.868Z,78.76
2023-02-26T09:49:49.272Z,75.99
2023-02-26T09:53:24.014Z,74.44
2023-02-26T09:57:27.234Z,73.32
2023-02-26T10:01:11.648Z,71.98
2023-02-26T10:05:08.873Z,71.44
2023-02-26T10:08:53.089Z,71.07
2023-02-26T10:12:23.322Z,70.60
2023-02-26T10:15:59.386Z,71.32
2023-02-26T10:19:49.185Z,70.44
2023-02-26T10:23:29.696Z,70.87
2023-02-26T10:27:17.386Z,70.07
2023-02-26T10:31:03.715Z,68.33
2023-02-26T10:34:40.332Z,67.48
2023-02-26T10:38:31.602Z,68.32
2023-02-26T10:42:23.337Z,68.24
2023-02-26T10:46:23.313Z,66.71
2023-02-26T10:50:11.754Z,68.70
2023-02-26T10:53:56.103Z,68.73
2023-02-26T10:57:30.119Z,68.26
2023-02-26T11:01:21.415Z,68.38
2023-02-26T11:05:07.238Z,69.15
2023-02-26T11:08:54.566Z,70.07
2023-02-26T11:12:45.465Z,69.26
2023-02-26T11:16:33.961Z,69.56
2023-02-26T11:20:16.662Z,69.09
2023-02-26T11:24:07.257Z,68.62
2023-02-26T11:27:50.018Z,69.41
2023-02-26T11:31:28.464Z,71.10
2023-02-26T11:35:19.268Z,70.64
2023-02-26T11:38:59.517Z,67.93
2023-02-26T11:42:53.868Z,66.84
2023-02-26T11:46:32.030Z,64.09
2023-02-26T11:50:17.922Z,64.43
2023-02-26T11:54:19.997Z,64.84
2023-02-26T11:58:17.939Z,66.87
2023-02-26T12:01:48.588Z,66.76
2023-02-26T12:05:37.153Z,65.48
2023-02-26T12:09:16.520Z,65.17
2023-02-26T12:13:06.315Z,65.23
2023-02-26T12:16:50.119Z,64.09
2023-02-26T12:20:34.073Z,63.21
2023-02-26T12:24:42.660Z,63.95
2023-02-26T12:28:34.123Z,61.97
2023-02-26T12:32:36.537Z,62.93
2023-02-26T12:36:47.985Z,61.77
2023-02-26T12:40:38.161Z,63.63
2023-02-26T12:44:29.594Z,63.02
2023-02-26T12:48:34.530Z,62.23
2023-02-26T12:52:35.682Z,63.38
2023-02-26T12:56:43.169Z,63.87
2023-02-26T13:00:48.384Z,64.78
2023-02-26T13:04:47.819Z,63.53
2023-02-26T13:08:33.566Z,62.98
2023-02-26T13:12:32.988Z,63.42
2023-02-26T13:16:32.786Z,61.72
2023-02-26T13:20:12.360Z,61.14
2023-02-26T13:23:53.605Z,61.28
2023-02-26T13:27:35.620Z,61.96
2023-02-26T13:31:24.091Z,58.80
2023-02-26T13:35:23.021Z,57.97
2023-02-26T13:39:04.881Z,58.02
2023-02-26T13:42:48.439Z,58.11
2023-02-26T13:46:41.568Z,58.83
2023-02-26T13:50:36.028Z,59.04
2023-02-26T13:54:11.857Z,59.13
2023-02-26T13:57:54.218Z,60.95
2023-02-26T14:01:37.096Z,60.82
2023-02-26T14:05:12.421Z,60.51
2023-02-26T14:08:53.812Z,58.41
2023-02-26T14:12:43.471Z,57.16
2023-02-26T14:16:24.818Z,55.91
2023-02-26T14:20:20.912Z,55.67
2023-02-26T14:23:54.161Z,55.24
2023-02-26T14:27:40.448Z,55.68
2023-02-26T14:31:48.313Z,54.92
2023-02-26T14:35:33.551Z,55.83
2023-02-26T14:39:25.466Z,56.16
2023-02-26T14:43:07.191Z,55.39
2023-02-26T14:46:42.291Z,56.33
2023-02-26T14:50:40.879Z,56.51
2023-02-26T14:54:32.518Z,56.91
2023-02-26T14:58:18.679Z,55.31
2023-02-26T15:02:02.355Z,56.29
2023-02-26T15:05:54.229Z,56.47
2023-02-26T15:09:44.495Z,55.16
2023-02-26T15:13:43.542Z,54.87
2023-02-26T15:17:45.922Z,55.40
2023-02-26T15:21:34.141Z,55.03
2023-02-26T15:25:28.949Z,54.49
2023-02-26T15:29:00.917Z,53.28
2023-02-26T15:32:42.976Z,55.11
2023-02-26T15:36:24.767Z,55.76
2023-02-26T15:39:55.173Z,56.07
2023-02-26T15:43:31.143Z,55.62
2023-02-26T15:47:09.455Z,55.93
2023-02-26T15:50:56.793Z,56.13
2023-02-26T15:54:42.693Z,57.24
2023-02-26T15:58:30.055Z,57.32
2023-02-26T16:02:21.585Z,57.76
2023-02-26T16:05:56.399Z,58.15
2023-02-26T16:09:36.337Z,59.11
2023-02-26T16:13:26.127Z,59.79
2023-02-26T16:16:58.892Z,61.45
2023-02-26T16:20:46.493Z,62.21
2023-02-26T16:24:23.285Z,63.51
2023-02-26T16:28:16.353Z,64.11
2023-02-26T16:31:58.812Z,64.49
2023-02-26T16:35:39.677Z,64.97
2023-02-26T16:39:31.609Z,64.77
2023-02-26T16:43:33.467Z,65.28
2023-02-26T16:47:14.198Z,65.28
2023-02-26T16:51:07.940Z,65.40
2023-02-26T16:55:01.823Z,65.50
2023-02-26T16:58:41.480Z,65.99
2023-02-26T17:02:33.016Z,66.48
2023-02-26T17:06:23.703Z,66.77
2023-02-26T17:10:08.998Z,67.04
2023-02-26T17:14:08.835Z,67.19
2023-02-26T17:17:58.621Z,67.18
2023-02-26T17:21:29.065Z,67.40
2023-02-26T17:25:23.318Z,67.44
2023-02-26T17:29:02.777Z,67.50
2023-02-26T17:32:33.763Z,67.55
2023-02-26T17:36:24.004Z,67.40
2023-02-26T17:40:23.999Z,67.98
2023-02-26T17:44:01.990Z,67.87
2023-02-26T17:47:31.966Z,68.08
2023-02-26T17:51:16.001Z,68.20
2023-02-26T17:54:53.149Z,68.58
2023-02-26T17:58:30.580Z,68.31
2023-02-26T18:02:01.311Z,68.65
2023-02-26T18:05:54.652Z,68.75
2023-02-26T18:09:51.116Z,68.90
2023-02-26T18:13:29.753Z,69.41
2023-02-26T18:17:18.061Z,70.18
2023-02-26T18:21:01.225Z,70.67
2023-02-26T18:24:48.628Z,70.62
2023-02-26T18:28:26.290Z,70.66
2023-02-26T18:32:15.075Z,70.60
2023-02-26T18:36:20.755Z,70.88
2023-02-26T18:39:56.673Z,70.99
2023-02-26T18:43:34.054Z,71.08
2023-02-26T18:47:11.981Z,71.07
2023-02-26T18:50:50.652Z,71.30
2023-02-26T18:54:35.222Z,71.39
2023-02-26T18:58:23.560Z,71.61
2023-02-26T19:02:15.441Z,71.83
2023-02-26T19:06:05.217Z,72.20
2023-02-26T19:09:53.668Z,72.74
2023-02-26T19:13:36.494Z,72.61
2023-02-26T19:17:03.915Z,72.83
2023-02-26T19:20:34.315Z,72.88
2023-02-26T19:24:01.940Z,72.70
2023-02-26T19:27:41.133Z,72.21
2023-02-26T19:31:23.153Z,71.47
2023-02-26T19:35:12.228Z,71.21
2023-02-26T19:38:59.769Z,70.58
2023-02-26T19:42:48.101Z,69.82
2023-02-26T19:46:28.570Z,69.94
2023-02-26T19:50:18.394Z,69.39
2023-02-26T19:53:53.446Z,68.92
2023-02-26T19:57:41.490Z,68.26
2023-02-26T20:01:20.848Z,68.37
2023-02-26T20:05:06.464Z,68.34
2023-02-26T20:08:47.689Z,68.33
2023-02-26T20:12:35.392Z,67.78
2023-02-26T20:16:16.974Z,67.34
2023-02-26T20:19:53.951Z,67.28
2023-02-26T20:23:37.712Z,67.58
2023-02-26T20:27:14.103Z,67.62
2023-02-26T20:30:50.820Z,67.48
2023-02-26T20:34:27.479Z,67.35
2023-02-26T20:38:06.473Z,67.59
2023-02-26T20:41:44.936Z,67.86
2023-02-26T20:45:21.460Z,67.99
2023-02-26T20:49:11.977Z,68.18
2023-02-26T20:52:59.818Z,68.23
2023-02-26T20:56:33.075Z,68.62
2023-02-26T21:00:15.897Z,68.66
2023-02-26T21:04:04.226Z,68.79
2023-02-26T21:07:41.041Z,69.04
2023-02-26T21:11:36.833Z,69.28
2023-02-26T21:15:15.860Z,69.42
2023-02-26T21:18:51.370Z,69.46
2023-02-26T21:22:25.678Z,69.88
2023-02-26T21:26:04.000Z,69.84
2023-02-26T21:29:50.638Z,70.00
2023-02-26T21:33:32.821Z,70.15
2023-02-26T21:37:12.823Z,69.93
2023-02-26T21:41:00.695Z,70.18
2023-02-26T21:44:59.884Z,70.15
2023-02-26T21:48:51.623Z,70.25
2023-02-26T21:52:39.349Z,70.63
2023-02-26T21:56:27.257Z,70.68
2023-02-26T22:00:17.905Z,71.09
2023-02-26T22:04:05.809Z,71.08
2023-02-26T22:07:38.119Z,71.21
2023-02-26T22:11:05.798Z,71.37
2023-02-26T22:14:53.964Z,71.60
2023-02-26T22:18:35.259Z,71.84
2023-02-26T22:22:11.594Z,72.16
2023-02-26T22:25:44.022Z,72.02
2023-02-26T22:29:22.890Z,72.02
2023-02-26T22:32:59.009Z,72.40
2023-02-26T22:36:37.511Z,72.59
2023-02-26T22:40:17.748Z,72.48
2023-02-26T22:44:05.802Z,72.62
2023-02-26T22:47:53.567Z,72.66
2023-02-26T22:51:41.114Z,72.79
2023-02-26T22:55:28.788Z,72.88
2023-02-26T22:59:16.457Z,73.05
2023-02-26T23:03:04.369Z,73.32
2023-02-26T23:06:51.920Z,73.28
2023-02-26T23:10:39.488Z,73.44
2023-02-26T23:14:27.835Z,73.71
2023-02-26T23:18:15.494Z,73.65
2023-02-26T23:22:03.105Z,73.75
2023-02-26T23:25:45.529Z,73.62
2023-02-26T23:29:33.186Z,73.95
2023-02-26T23:33:21.401Z,74.00
2023-02-26T23:37:09.353Z,74.29
2023-02-26T23:40:58.236Z,74.42
2023-02-26T23:44:39.108Z,74.67
2023-02-26T23:48:16.802Z,74.98
2023-02-26T23:51:53.534Z,75.29
2023-02-26T23:55:43.170Z,75.35
2023-02-26T23:59:22.181Z,75.49
